createdAt,value
2018-07-24T00:00:04.192Z,16.41
2018-07-24T00:05:04.193Z,16.29
2018-07-24T00:10:04.205Z,16.32
2018-07-24T00:15:04.203Z,16.29
2018-07-24T00:20:04.200Z,16.13
2018-07-24T00:25:04.211Z,16.03
2018-07-24T00:30:04.208Z,15.85
2018-07-24T00:35:04.210Z,15.74
2018-07-24T00:40:04.221Z,15.86
2018-07-24T00:45:04.219Z,15.91
2018-07-24T00:50:04.216Z,15.9
2018-07-24T00:55:04.223Z,15.84
2018-07-24T01:00:04.222Z,16.03
2018-07-24T01:05:04.230Z,16.05
2018-07-24T01:10:04.236Z,15.99
2018-07-24T01:15:04.237Z,15.91
2018-07-24T01:20:04.237Z,15.92
2018-07-24T01:25:04.242Z,15.88
2018-07-24T01:30:04.239Z,15.77
2018-07-24T01:35:04.244Z,15.71
2018-07-24T01:40:04.262Z,15.77
2018-07-24T01:45:04.246Z,15.75
2018-07-24T01:50:04.248Z,15.59
2018-07-24T01:55:04.258Z,15.45
2018-07-24T02:00:04.258Z,15.42
2018-07-24T02:05:04.257Z,15.34
2018-07-24T02:10:04.268Z,15.18
2018-07-24T02:15:04.260Z,15.02
2018-07-24T02:20:04.264Z,14.87
2018-07-24T02:25:04.278Z,14.77
2018-07-24T02:30:04.270Z,14.67
2018-07-24T02:35:04.272Z,14.55
2018-07-24T02:40:04.297Z,14.51
2018-07-24T02:45:04.278Z,14.45
2018-07-24T02:50:04.287Z,14.35
2018-07-24T02:55:04.295Z,14.26
2018-07-24T03:00:04.284Z,14.18
2018-07-24T03:05:04.288Z,14.15
2018-07-24T03:10:04.301Z,14.19
2018-07-24T03:15:04.295Z,14.23
2018-07-24T03:20:04.302Z,14.25
2018-07-24T03:25:04.303Z,14.38
2018-07-24T03:30:04.307Z,14.45
2018-07-24T03:35:04.308Z,14.48
2018-07-24T03:40:04.316Z,14.5
2018-07-24T03:45:04.334Z,14.66
2018-07-24T03:50:04.314Z,14.93
2018-07-24T03:55:04.328Z,15.02
2018-07-24T04:00:04.319Z,14.98
2018-07-24T04:05:04.318Z,15.1
2018-07-24T04:10:04.339Z,15.16
2018-07-24T04:15:04.332Z,15.08
2018-07-24T04:20:04.328Z,15.04
2018-07-24T04:25:04.355Z,15.18
2018-07-24T04:30:04.336Z,15.45
2018-07-24T04:35:04.336Z,15.65
2018-07-24T04:40:04.385Z,15.68
2018-07-24T04:45:04.364Z,15.71
2018-07-24T04:50:04.341Z,15.83
2018-07-24T04:55:04.349Z,15.99
2018-07-24T05:00:04.369Z,16.21
2018-07-24T05:05:04.349Z,16.34
2018-07-24T05:10:04.355Z,16.64
2018-07-24T05:15:04.365Z,16.99
2018-07-24T05:20:04.369Z,17.92
2018-07-24T05:25:04.366Z,18.18
2018-07-24T05:30:04.383Z,18.19
2018-07-24T05:35:04.371Z,18.19
2018-07-24T05:40:04.378Z,18.24
2018-07-24T05:45:04.377Z,18.34
2018-07-24T05:50:04.385Z,18.62
2018-07-24T05:55:04.399Z,18.86
2018-07-24T06:00:04.381Z,19.01
2018-07-24T06:05:04.390Z,19.25
2018-07-24T06:10:04.403Z,19.63
2018-07-24T06:15:04.391Z,19.96
2018-07-24T06:20:03.393Z,20.06
2018-07-24T06:25:03.411Z,20.22
2018-07-24T06:30:03.397Z,20.63
2018-07-24T06:35:03.456Z,20.95
2018-07-24T06:40:03.409Z,21.18
2018-07-24T06:45:03.411Z,21.4
2018-07-24T06:50:03.406Z,21.89
2018-07-24T06:55:03.415Z,22.13
2018-07-24T07:00:03.427Z,22.36
2018-07-24T07:05:03.439Z,22.79
2018-07-24T07:10:03.421Z,24.06
2018-07-24T07:15:03.433Z,25.3
2018-07-24T07:20:03.429Z,26.37
2018-07-24T07:25:03.430Z,27.08
2018-07-24T07:30:03.438Z,27.91
2018-07-24T07:35:03.438Z,28.53
2018-07-24T07:40:03.448Z,29.15
2018-07-24T07:45:03.440Z,29.82
2018-07-24T07:50:03.449Z,30.47
2018-07-24T07:55:03.455Z,30.97
2018-07-24T08:00:03.453Z,31.53
2018-07-24T08:05:03.457Z,31.49
2018-07-24T08:10:03.456Z,32
2018-07-24T08:15:03.454Z,32.54
2018-07-24T08:20:03.471Z,32.86
2018-07-24T08:25:03.462Z,33.29
2018-07-24T08:30:03.466Z,33.15
2018-07-24T08:35:03.472Z,33.34
2018-07-24T08:40:03.468Z,33.33
2018-07-24T08:45:03.505Z,33.96
2018-07-24T08:50:03.479Z,33.97
2018-07-24T08:55:03.739Z,32.92
2018-07-24T09:00:03.481Z,34.1
2018-07-24T09:05:03.488Z,34.73
2018-07-24T09:10:03.491Z,34.76
2018-07-24T09:15:03.490Z,34.71
2018-07-24T09:20:03.492Z,34.21
2018-07-24T09:25:03.506Z,35.47
2018-07-24T09:30:03.500Z,36.39
2018-07-24T09:35:03.497Z,37.34
2018-07-24T09:40:03.505Z,37.23
2018-07-24T09:45:03.510Z,37.94
2018-07-24T09:50:03.506Z,38.19
2018-07-24T09:55:03.518Z,38.74
2018-07-24T10:00:03.514Z,39.54
2018-07-24T10:05:03.517Z,39.36
2018-07-24T10:10:03.519Z,39.77
2018-07-24T10:15:03.524Z,38.75
2018-07-24T10:20:03.539Z,39.63
2018-07-24T10:25:03.529Z,38.37
2018-07-24T10:30:03.528Z,38.03
2018-07-24T10:35:03.535Z,35.83
2018-07-24T10:40:03.541Z,35.01
2018-07-24T10:45:03.537Z,34.4
2018-07-24T10:50:03.542Z,33.75
2018-07-24T10:55:03.547Z,33.97
2018-07-24T11:00:03.545Z,35.35
2018-07-24T11:05:03.549Z,36.14
2018-07-24T11:10:03.593Z,36.4
2018-07-24T11:15:03.554Z,37.27
2018-07-24T11:20:03.558Z,38.43
2018-07-24T11:25:03.566Z,38.66
2018-07-24T11:30:03.564Z,39.26
2018-07-24T11:35:03.561Z,39.71
2018-07-24T11:40:03.571Z,40.74
2018-07-24T11:45:03.566Z,42.46
2018-07-24T11:50:03.569Z,43.77
2018-07-24T11:55:03.580Z,43.4
2018-07-24T12:00:03.581Z,43.37
2018-07-24T12:05:03.581Z,44.99
2018-07-24T12:10:03.588Z,45.81
2018-07-24T12:15:03.630Z,45.85
2018-07-24T12:20:03.583Z,46.53
2018-07-24T12:25:03.608Z,47.58
2018-07-24T12:30:03.592Z,47.58
2018-07-24T12:35:03.592Z,46.61
2018-07-24T12:40:03.604Z,46.25
2018-07-24T12:45:03.601Z,46.06
2018-07-24T12:50:03.602Z,46.08
2018-07-24T12:55:03.616Z,45.93
2018-07-24T13:00:03.611Z,47.32
2018-07-24T13:05:03.610Z,48.38
2018-07-24T13:10:03.642Z,48.23
2018-07-24T13:15:03.614Z,48.57
2018-07-24T13:20:03.658Z,48.12
2018-07-24T13:25:03.634Z,46.89
2018-07-24T13:30:03.630Z,46.77
2018-07-24T13:35:03.627Z,45.24
2018-07-24T13:40:03.631Z,44.07
2018-07-24T13:45:03.719Z,41.18
2018-07-24T13:50:03.635Z,39.19
2018-07-24T13:55:03.634Z,37.78
2018-07-24T14:00:03.638Z,36.53
2018-07-24T14:05:03.647Z,36.55
2018-07-24T14:10:03.655Z,36.28
2018-07-24T14:15:03.656Z,36.42
2018-07-24T14:20:03.651Z,36.71
2018-07-24T14:25:03.663Z,38.06
2018-07-24T14:30:03.655Z,40.27
2018-07-24T14:35:03.667Z,42.36
2018-07-24T14:40:03.692Z,44.55
2018-07-24T14:45:03.676Z,46.93
2018-07-24T14:50:03.701Z,46.82
2018-07-24T14:55:03.668Z,47.52
2018-07-24T15:00:03.678Z,47.8
2018-07-24T15:05:03.678Z,46.68
2018-07-24T15:10:03.680Z,47.7
2018-07-24T15:15:03.684Z,48.1
2018-07-24T15:20:03.745Z,47.63
2018-07-24T15:25:03.683Z,47.77
2018-07-24T15:30:03.700Z,47.48
2018-07-24T15:35:03.837Z,48.06
2018-07-24T15:40:03.693Z,48.28
2018-07-24T15:45:03.707Z,48.16
2018-07-24T15:50:03.696Z,47.6
2018-07-24T15:55:03.704Z,46.01
2018-07-24T16:00:03.717Z,47.47
2018-07-24T16:05:03.708Z,47.54
2018-07-24T16:10:03.711Z,48.05
2018-07-24T16:15:03.713Z,46.97
2018-07-24T16:20:03.711Z,46.69
2018-07-24T16:25:03.716Z,44.89
2018-07-24T16:30:03.725Z,44.22
2018-07-24T16:35:03.718Z,42.14
2018-07-24T16:40:03.719Z,39.42
2018-07-24T16:45:03.732Z,37.54
2018-07-24T16:50:03.728Z,35.75
2018-07-24T16:55:03.736Z,35.2
2018-07-24T17:00:03.740Z,34.67
2018-07-24T17:05:03.733Z,34
2018-07-24T17:10:03.743Z,33.62
2018-07-24T17:15:03.749Z,33.46
2018-07-24T17:20:03.744Z,33.11
2018-07-24T17:25:03.746Z,32.7
2018-07-24T17:30:03.754Z,32.43
2018-07-24T17:35:03.757Z,32.3
2018-07-24T17:40:03.758Z,32.11
2018-07-24T17:45:03.764Z,31.92
2018-07-24T17:50:03.825Z,31.74
2018-07-24T17:55:03.765Z,31.68
2018-07-24T18:00:03.819Z,31.51
2018-07-24T18:05:03.771Z,31.14
2018-07-24T18:10:03.816Z,30.84
2018-07-24T18:15:03.794Z,30.57
2018-07-24T18:20:03.776Z,30.27
2018-07-24T18:25:03.777Z,29.97
2018-07-24T18:30:03.788Z,29.61
2018-07-24T18:35:03.781Z,29.41
2018-07-24T18:40:03.790Z,29.15
2018-07-24T18:45:03.792Z,28.79
2018-07-24T18:50:03.817Z,28.56
2018-07-24T18:55:03.796Z,28.41
2018-07-24T19:00:03.799Z,28.09
2018-07-24T19:05:03.864Z,27.69
2018-07-24T19:10:03.805Z,27.31
2018-07-24T19:15:03.804Z,27.09
2018-07-24T19:20:03.826Z,26.77
2018-07-24T19:25:03.813Z,26.42
2018-07-24T19:30:03.816Z,26.21
2018-07-24T19:35:03.825Z,26.09
2018-07-24T19:40:03.835Z,25.8
2018-07-24T19:45:03.821Z,25.5
2018-07-24T19:50:03.831Z,25.24
2018-07-24T19:55:03.843Z,25.13
2018-07-24T20:00:03.829Z,25.1
2018-07-24T20:05:03.836Z,24.91
2018-07-24T20:10:03.839Z,24.71
2018-07-24T20:15:03.847Z,24.54
2018-07-24T20:20:03.840Z,24.47
2018-07-24T20:25:03.840Z,24.25
2018-07-24T20:30:03.850Z,23.97
2018-07-24T20:35:03.955Z,23.82
2018-07-24T20:40:03.850Z,23.82
2018-07-24T20:45:03.860Z,23.74
2018-07-24T20:50:03.857Z,23.49
2018-07-24T20:55:03.860Z,23.24
2018-07-24T21:00:03.867Z,23.08
2018-07-24T21:05:03.877Z,22.9
2018-07-24T21:10:03.873Z,22.76
2018-07-24T21:15:03.878Z,22.68
2018-07-24T21:20:03.874Z,22.7
2018-07-24T21:25:03.880Z,22.62
2018-07-24T21:30:03.900Z,22.44
2018-07-24T21:35:03.884Z,22.34
2018-07-24T21:40:03.888Z,22.29
2018-07-24T21:45:03.908Z,22.27
2018-07-24T21:50:03.888Z,22.18
2018-07-24T21:55:03.893Z,22.04
2018-07-24T22:00:03.923Z,22.03
2018-07-24T22:05:03.900Z,21.97
2018-07-24T22:10:03.899Z,21.89
2018-07-24T22:15:03.921Z,21.79
2018-07-24T22:20:03.908Z,21.8
2018-07-24T22:25:03.913Z,21.76
2018-07-24T22:30:03.911Z,21.55
2018-07-24T22:35:03.932Z,21.42
2018-07-24T22:40:03.917Z,21.34
2018-07-24T22:45:03.915Z,21.3
2018-07-24T22:50:03.927Z,21.21
2018-07-24T22:55:03.924Z,21.15
2018-07-24T23:00:03.931Z,21.07
2018-07-24T23:05:03.937Z,21.17
2018-07-24T23:10:03.930Z,21.18
2018-07-24T23:15:03.935Z,21.04
2018-07-24T23:20:03.948Z,20.98
2018-07-24T23:25:03.942Z,21.02
2018-07-24T23:30:03.945Z,21.03
2018-07-24T23:35:03.961Z,20.91
2018-07-24T23:40:03.943Z,20.76
2018-07-24T23:45:03.945Z,20.71
2018-07-24T23:50:03.973Z,20.65
2018-07-24T23:55:03.958Z,20.48
